Etusivu
METAR-TAF:

METAR-TAF

Lentoasemat :

Auburn, Indiana, Yhdysvallat

Leveyspiiri: 41-18-26N, Pituuspiiri: 085-03-52W, korkeus merenpinnasta: 268 m

Tämänhetkinen sää

Tämä raportti tehtiin 28 minuuttia sitten, kello 11.15 UTC
Tuuli 3 kn pohjoisesta/koillisesta
Lämpötila 11°C
Kosteus 94%
Ilmanpaine 1026 hPa
Näkyvyys: 16.1 km
selkeää

METAR: KGWB 241115Z AUTO 03003KT 10SM CLR 11/10 A3030 RMK AO2

Aika: 07:43 (11:43 UTC)


TAF: puuttuu

Säähavainnot ja -ennusteet yli 4000 lentoasemalta (METAR- ja TAF-raportit).

Käytössä olevat sääasemat on merkitty karttaan keltaisilla ja punaisilla pisteillä.

Aseta hiiri pisteen päälle nähdäksesi sääaseman nimen.

Klikkaa sitten nähdäksesi säähavainnot ja -ennusteet.

Kartan vaihtaminen: klikkaa mustalla rastilla varustettuja vihreitä pisteitä, niin voit zoomata sisään; viivalla varustettua vihreää pistettä, niin voit zoomata ulos tai vihreitä nuolia, niin pääset viereisille kartoille.


METAR-TAF: